sensor_id;sensor_type;location;lat;lon;timestamp;P1;durP1;ratioP1;P2;durP2;ratioP2
40537;SDS011;27925;41.874;12.526;2023-10-08T00:10:41;19.52;;;15.23;;
40537;SDS011;27925;41.874;12.526;2023-10-08T00:13:08;20.52;;;16.70;;
40537;SDS011;27925;41.874;12.526;2023-10-08T00:15:38;20.80;;;17.42;;
40537;SDS011;27925;41.874;12.526;2023-10-08T00:18:18;24.70;;;16.40;;
40537;SDS011;27925;41.874;12.526;2023-10-08T00:20:44;22.02;;;16.05;;
40537;SDS011;27925;41.874;12.526;2023-10-08T00:23:22;19.85;;;15.80;;
40537;SDS011;27925;41.874;12.526;2023-10-08T00:25:52;20.08;;;15.43;;
40537;SDS011;27925;41.874;12.526;2023-10-08T00:28:19;21.77;;;16.42;;
40537;SDS011;27925;41.874;12.526;2023-10-08T00:30:49;21.15;;;15.70;;
40537;SDS011;27925;41.874;12.526;2023-10-08T00:33:15;17.95;;;15.05;;
40537;SDS011;27925;41.874;12.526;2023-10-08T00:35:42;21.17;;;16.45;;
40537;SDS011;27925;41.874;12.526;2023-10-08T00:38:08;21.63;;;15.10;;
40537;SDS011;27925;41.874;12.526;2023-10-08T00:40:41;23.77;;;15.82;;
40537;SDS011;27925;41.874;12.526;2023-10-08T00:43:11;21.75;;;15.93;;
40537;SDS011;27925;41.874;12.526;2023-10-08T00:46:03;24.77;;;17.02;;
40537;SDS011;27925;41.874;12.526;2023-10-08T00:48:29;23.88;;;17.35;;
40537;SDS011;27925;41.874;12.526;2023-10-08T00:51:04;25.35;;;17.70;;
40537;SDS011;27925;41.874;12.526;2023-10-08T00:56:26;26.38;;;19.30;;
40537;SDS011;27925;41.874;12.526;2023-10-08T00:59:11;23.50;;;17.65;;
40537;SDS011;27925;41.874;12.526;2023-10-08T01:01:44;27.65;;;18.90;;
40537;SDS011;27925;41.874;12.526;2023-10-08T01:04:16;22.27;;;18.52;;
40537;SDS011;27925;41.874;12.526;2023-10-08T01:06:44;24.15;;;19.02;;
40537;SDS011;27925;41.874;12.526;2023-10-08T01:09:12;22.30;;;18.90;;
40537;SDS011;27925;41.874;12.526;2023-10-08T01:11:46;27.45;;;19.20;;
40537;SDS011;27925;41.874;12.526;2023-10-08T01:14:32;23.45;;;18.02;;
40537;SDS011;27925;41.874;12.526;2023-10-08T01:16:58;24.20;;;19.35;;
40537;SDS011;27925;41.874;12.526;2023-10-08T01:19:25;25.27;;;18.15;;
40537;SDS011;27925;41.874;12.526;2023-10-08T01:21:52;26.02;;;18.10;;
40537;SDS011;27925;41.874;12.526;2023-10-08T01:24:17;30.15;;;18.65;;
40537;SDS011;27925;41.874;12.526;2023-10-08T01:26:45;24.58;;;17.63;;
40537;SDS011;27925;41.874;12.526;2023-10-08T01:29:11;30.17;;;17.63;;
40537;SDS011;27925;41.874;12.526;2023-10-08T01:31:46;21.73;;;17.20;;
40537;SDS011;27925;41.874;12.526;2023-10-08T01:34:18;20.58;;;16.83;;
40537;SDS011;27925;41.874;12.526;2023-10-08T01:36:51;22.20;;;16.85;;
40537;SDS011;27925;41.874;12.526;2023-10-08T01:39:17;28.67;;;17.52;;
40537;SDS011;27925;41.874;12.526;2023-10-08T01:41:45;22.85;;;17.13;;
40537;SDS011;27925;41.874;12.526;2023-10-08T01:44:16;20.15;;;16.52;;
40537;SDS011;27925;41.874;12.526;2023-10-08T01:46:42;24.08;;;17.63;;
40537;SDS011;27925;41.874;12.526;2023-10-08T01:49:08;25.50;;;17.25;;
40537;SDS011;27925;41.874;12.526;2023-10-08T01:51:47;29.10;;;17.10;;
40537;SDS011;27925;41.874;12.526;2023-10-08T01:54:13;23.63;;;18.63;;
40537;SDS011;27925;41.874;12.526;2023-10-08T01:56:40;24.08;;;18.42;;
40537;SDS011;27925;41.874;12.526;2023-10-08T01:59:15;29.33;;;18.48;;
40537;SDS011;27925;41.874;12.526;2023-10-08T02:01:42;21.90;;;17.48;;
40537;SDS011;27925;41.874;12.526;2023-10-08T02:04:08;26.98;;;19.10;;
40537;SDS011;27925;41.874;12.526;2023-10-08T02:06:37;25.30;;;18.52;;
40537;SDS011;27925;41.874;12.526;2023-10-08T02:09:06;24.65;;;16.73;;
40537;SDS011;27925;41.874;12.526;2023-10-08T02:11:48;23.02;;;16.67;;
40537;SDS011;27925;41.874;12.526;2023-10-08T02:14:19;22.47;;;16.60;;
40537;SDS011;27925;41.874;12.526;2023-10-08T02:16:46;21.52;;;16.10;;
40537;SDS011;27925;41.874;12.526;2023-10-08T02:19:12;21.05;;;16.05;;
40537;SDS011;27925;41.874;12.526;2023-10-08T02:21:39;21.38;;;15.63;;
40537;SDS011;27925;41.874;12.526;2023-10-08T02:24:05;21.88;;;15.77;;
40537;SDS011;27925;41.874;12.526;2023-10-08T02:26:33;21.10;;;16.42;;
40537;SDS011;27925;41.874;12.526;2023-10-08T02:29:00;19.48;;;14.93;;
40537;SDS011;27925;41.874;12.526;2023-10-08T02:31:26;17.23;;;15.35;;
40537;SDS011;27925;41.874;12.526;2023-10-08T02:33:53;20.52;;;15.63;;
40537;SDS011;27925;41.874;12.526;2023-10-08T02:36:19;20.83;;;15.23;;
40537;SDS011;27925;41.874;12.526;2023-10-08T02:38:44;20.88;;;16.02;;
40537;SDS011;27925;41.874;12.526;2023-10-08T02:41:15;17.00;;;14.98;;
40537;SDS011;27925;41.874;12.526;2023-10-08T02:43:42;20.92;;;15.52;;
40537;SDS011;27925;41.874;12.526;2023-10-08T02:46:10;18.63;;;16.20;;
40537;SDS011;27925;41.874;12.526;2023-10-08T02:48:40;26.05;;;15.45;;
40537;SDS011;27925;41.874;12.526;2023-10-08T02:51:06;22.95;;;16.58;;
40537;SDS011;27925;41.874;12.526;2023-10-08T02:53:38;23.08;;;16.15;;
40537;SDS011;27925;41.874;12.526;2023-10-08T02:56:07;19.60;;;15.25;;
40537;SDS011;27925;41.874;12.526;2023-10-08T02:58:38;21.08;;;14.65;;
40537;SDS011;27925;41.874;12.526;2023-10-08T03:01:05;19.38;;;15.02;;
40537;SDS011;27925;41.874;12.526;2023-10-08T03:03:32;19.80;;;15.23;;
40537;SDS011;27925;41.874;12.526;2023-10-08T03:05:58;20.48;;;16.20;;
40537;SDS011;27925;41.874;12.526;2023-10-08T03:08:23;21.08;;;15.00;;
40537;SDS011;27925;41.874;12.526;2023-10-08T03:10:50;21.98;;;15.70;;
40537;SDS011;27925;41.874;12.526;2023-10-08T03:13:28;19.60;;;15.68;;
40537;SDS011;27925;41.874;12.526;2023-10-08T03:15:53;22.23;;;15.55;;
40537;SDS011;27925;41.874;12.526;2023-10-08T03:18:25;18.17;;;14.70;;
40537;SDS011;27925;41.874;12.526;2023-10-08T03:21:02;19.73;;;15.23;;
40537;SDS011;27925;41.874;12.526;2023-10-08T03:23:45;19.17;;;14.65;;
40537;SDS011;27925;41.874;12.526;2023-10-08T03:26:13;21.13;;;15.68;;
40537;SDS011;27925;41.874;12.526;2023-10-08T03:28:57;21.20;;;15.60;;
40537;SDS011;27925;41.874;12.526;2023-10-08T03:31:23;21.75;;;16.05;;
40537;SDS011;27925;41.874;12.526;2023-10-08T03:34:10;22.35;;;16.77;;
40537;SDS011;27925;41.874;12.526;2023-10-08T03:36:40;22.15;;;16.95;;
40537;SDS011;27925;41.874;12.526;2023-10-08T03:39:18;23.48;;;17.17;;
40537;SDS011;27925;41.874;12.526;2023-10-08T03:41:45;18.95;;;16.45;;
40537;SDS011;27925;41.874;12.526;2023-10-08T03:44:31;21.52;;;17.30;;
40537;SDS011;27925;41.874;12.526;2023-10-08T03:46:56;22.75;;;17.33;;
40537;SDS011;27925;41.874;12.526;2023-10-08T03:49:22;19.13;;;16.90;;
40537;SDS011;27925;41.874;12.526;2023-10-08T03:51:48;23.48;;;16.25;;
40537;SDS011;27925;41.874;12.526;2023-10-08T03:54:17;20.85;;;16.95;;
40537;SDS011;27925;41.874;12.526;2023-10-08T03:56:45;25.20;;;16.90;;
40537;SDS011;27925;41.874;12.526;2023-10-08T03:59:13;21.77;;;17.17;;
40537;SDS011;27925;41.874;12.526;2023-10-08T04:01:42;21.38;;;16.65;;
40537;SDS011;27925;41.874;12.526;2023-10-08T04:04:08;27.75;;;17.75;;
40537;SDS011;27925;41.874;12.526;2023-10-08T04:06:40;23.42;;;17.25;;
40537;SDS011;27925;41.874;12.526;2023-10-08T04:09:14;25.27;;;17.15;;
40537;SDS011;27925;41.874;12.526;2023-10-08T04:11:49;20.63;;;16.35;;
40537;SDS011;27925;41.874;12.526;2023-10-08T04:14:16;20.83;;;15.70;;
40537;SDS011;27925;41.874;12.526;2023-10-08T04:16:45;20.13;;;14.90;;
40537;SDS011;27925;41.874;12.526;2023-10-08T04:19:11;20.77;;;16.05;;
40537;SDS011;27925;41.874;12.526;2023-10-08T04:21:37;22.30;;;15.90;;
40537;SDS011;27925;41.874;12.526;2023-10-08T04:24:07;19.50;;;15.38;;
40537;SDS011;27925;41.874;12.526;2023-10-08T04:26:34;22.42;;;16.75;;
40537;SDS011;27925;41.874;12.526;2023-10-08T04:29:01;21.13;;;15.10;;
40537;SDS011;27925;41.874;12.526;2023-10-08T04:31:28;19.02;;;15.45;;
40537;SDS011;27925;41.874;12.526;2023-10-08T04:34:11;21.05;;;15.98;;
40537;SDS011;27925;41.874;12.526;2023-10-08T04:36:47;20.45;;;16.45;;
40537;SDS011;27925;41.874;12.526;2023-10-08T04:39:20;19.85;;;14.80;;
40537;SDS011;27925;41.874;12.526;2023-10-08T04:42:12;20.08;;;14.48;;
40537;SDS011;27925;41.874;12.526;2023-10-08T04:44:39;22.05;;;15.55;;
40537;SDS011;27925;41.874;12.526;2023-10-08T04:47:08;20.48;;;15.30;;
40537;SDS011;27925;41.874;12.526;2023-10-08T04:49:34;19.23;;;14.82;;
40537;SDS011;27925;41.874;12.526;2023-10-08T04:52:05;20.35;;;15.25;;
40537;SDS011;27925;41.874;12.526;2023-10-08T04:54:39;20.23;;;14.90;;
40537;SDS011;27925;41.874;12.526;2023-10-08T04:57:07;18.70;;;14.38;;
40537;SDS011;27925;41.874;12.526;2023-10-08T04:59:40;19.35;;;15.07;;
40537;SDS011;27925;41.874;12.526;2023-10-08T05:02:07;19.77;;;14.50;;
40537;SDS011;27925;41.874;12.526;2023-10-08T05:04:46;20.92;;;15.10;;
40537;SDS011;27925;41.874;12.526;2023-10-08T05:07:17;20.48;;;14.77;;
40537;SDS011;27925;41.874;12.526;2023-10-08T05:09:51;17.05;;;13.98;;
40537;SDS011;27925;41.874;12.526;2023-10-08T05:12:36;22.40;;;15.40;;
40537;SDS011;27925;41.874;12.526;2023-10-08T05:15:03;18.67;;;14.40;;
40537;SDS011;27925;41.874;12.526;2023-10-08T05:17:39;21.73;;;14.90;;
40537;SDS011;27925;41.874;12.526;2023-10-08T05:20:14;20.33;;;15.55;;
40537;SDS011;27925;41.874;12.526;2023-10-08T05:23:06;19.90;;;14.13;;
40537;SDS011;27925;41.874;12.526;2023-10-08T05:25:51;16.45;;;13.48;;
40537;SDS011;27925;41.874;12.526;2023-10-08T05:28:37;20.85;;;13.90;;
40537;SDS011;27925;41.874;12.526;2023-10-08T05:31:23;22.13;;;14.60;;
40537;SDS011;27925;41.874;12.526;2023-10-08T05:34:07;20.15;;;14.45;;
40537;SDS011;27925;41.874;12.526;2023-10-08T05:36:42;22.15;;;14.00;;
40537;SDS011;27925;41.874;12.526;2023-10-08T05:39:27;20.27;;;15.10;;
40537;SDS011;27925;41.874;12.526;2023-10-08T05:42:05;19.77;;;15.23;;
40537;SDS011;27925;41.874;12.526;2023-10-08T05:44:40;25.02;;;16.05;;
40537;SDS011;27925;41.874;12.526;2023-10-08T05:47:14;19.45;;;14.82;;
40537;SDS011;27925;41.874;12.526;2023-10-08T05:49:58;21.50;;;16.48;;
40537;SDS011;27925;41.874;12.526;2023-10-08T05:52:57;21.17;;;16.15;;
40537;SDS011;27925;41.874;12.526;2023-10-08T05:55:22;23.17;;;16.00;;
40537;SDS011;27925;41.874;12.526;2023-10-08T05:57:58;25.02;;;18.02;;
40537;SDS011;27925;41.874;12.526;2023-10-08T06:00:40;25.73;;;18.98;;
40537;SDS011;27925;41.874;12.526;2023-10-08T06:03:18;23.75;;;17.90;;
40537;SDS011;27925;41.874;12.526;2023-10-08T06:06:02;28.05;;;18.52;;
40537;SDS011;27925;41.874;12.526;2023-10-08T06:08:38;27.10;;;18.48;;
40537;SDS011;27925;41.874;12.526;2023-10-08T06:11:23;26.63;;;19.25;;
40537;SDS011;27925;41.874;12.526;2023-10-08T06:14:12;26.52;;;19.40;;
40537;SDS011;27925;41.874;12.526;2023-10-08T06:16:39;26.92;;;19.48;;
40537;SDS011;27925;41.874;12.526;2023-10-08T06:19:12;25.83;;;18.73;;
40537;SDS011;27925;41.874;12.526;2023-10-08T06:21:40;26.75;;;19.50;;
40537;SDS011;27925;41.874;12.526;2023-10-08T06:24:11;26.42;;;18.80;;
40537;SDS011;27925;41.874;12.526;2023-10-08T06:26:42;23.85;;;17.20;;
40537;SDS011;27925;41.874;12.526;2023-10-08T06:29:11;24.02;;;16.55;;
40537;SDS011;27925;41.874;12.526;2023-10-08T06:31:56;21.50;;;15.35;;
40537;SDS011;27925;41.874;12.526;2023-10-08T06:34:27;20.85;;;14.20;;
40537;SDS011;27925;41.874;12.526;2023-10-08T06:36:53;21.52;;;15.00;;
40537;SDS011;27925;41.874;12.526;2023-10-08T06:39:21;18.88;;;14.40;;
40537;SDS011;27925;41.874;12.526;2023-10-08T06:41:53;20.17;;;13.77;;
40537;SDS011;27925;41.874;12.526;2023-10-08T06:44:22;17.85;;;13.60;;
40537;SDS011;27925;41.874;12.526;2023-10-08T06:46:48;14.48;;;11.90;;
40537;SDS011;27925;41.874;12.526;2023-10-08T06:49:13;18.35;;;12.77;;
40537;SDS011;27925;41.874;12.526;2023-10-08T06:51:40;19.65;;;13.23;;
40537;SDS011;27925;41.874;12.526;2023-10-08T06:54:08;15.88;;;12.18;;
40537;SDS011;27925;41.874;12.526;2023-10-08T06:56:38;18.08;;;12.35;;
40537;SDS011;27925;41.874;12.526;2023-10-08T06:59:11;17.13;;;11.47;;
40537;SDS011;27925;41.874;12.526;2023-10-08T07:01:43;16.17;;;11.80;;
40537;SDS011;27925;41.874;12.526;2023-10-08T07:04:12;15.35;;;11.40;;
40537;SDS011;27925;41.874;12.526;2023-10-08T07:06:39;17.38;;;12.15;;
40537;SDS011;27925;41.874;12.526;2023-10-08T07:09:05;17.30;;;11.88;;
40537;SDS011;27925;41.874;12.526;2023-10-08T07:11:40;15.15;;;11.77;;
40537;SDS011;27925;41.874;12.526;2023-10-08T07:14:09;17.38;;;12.02;;
40537;SDS011;27925;41.874;12.526;2023-10-08T07:16:36;15.07;;;10.82;;
40537;SDS011;27925;41.874;12.526;2023-10-08T07:19:01;15.70;;;11.35;;
40537;SDS011;27925;41.874;12.526;2023-10-08T07:21:30;13.73;;;10.98;;
40537;SDS011;27925;41.874;12.526;2023-10-08T07:24:09;15.13;;;10.75;;
40537;SDS011;27925;41.874;12.526;2023-10-08T07:26:42;15.52;;;11.05;;
40537;SDS011;27925;41.874;12.526;2023-10-08T07:29:15;15.13;;;10.93;;
40537;SDS011;27925;41.874;12.526;2023-10-08T07:31:42;15.70;;;10.43;;
40537;SDS011;27925;41.874;12.526;2023-10-08T07:34:14;14.32;;;10.93;;
40537;SDS011;27925;41.874;12.526;2023-10-08T07:36:41;17.00;;;10.68;;
40537;SDS011;27925;41.874;12.526;2023-10-08T07:39:08;14.93;;;11.15;;
40537;SDS011;27925;41.874;12.526;2023-10-08T07:41:48;16.10;;;11.13;;
40537;SDS011;27925;41.874;12.526;2023-10-08T07:44:14;17.85;;;10.82;;
40537;SDS011;27925;41.874;12.526;2023-10-08T07:46:40;19.85;;;10.65;;
40537;SDS011;27925;41.874;12.526;2023-10-08T07:49:06;18.05;;;11.65;;
40537;SDS011;27925;41.874;12.526;2023-10-08T07:51:32;14.77;;;9.98;;
40537;SDS011;27925;41.874;12.526;2023-10-08T07:53:58;18.10;;;11.07;;
40537;SDS011;27925;41.874;12.526;2023-10-08T07:56:25;15.02;;;11.32;;
40537;SDS011;27925;41.874;12.526;2023-10-08T07:58:53;15.25;;;11.13;;
40537;SDS011;27925;41.874;12.526;2023-10-08T08:01:20;16.25;;;10.85;;
40537;SDS011;27925;41.874;12.526;2023-10-08T08:03:49;14.25;;;10.30;;
40537;SDS011;27925;41.874;12.526;2023-10-08T08:06:16;17.98;;;10.27;;
40537;SDS011;27925;41.874;12.526;2023-10-08T08:08:42;12.73;;;10.20;;
40537;SDS011;27925;41.874;12.526;2023-10-08T08:11:09;12.70;;;9.23;;
40537;SDS011;27925;41.874;12.526;2023-10-08T08:13:41;17.38;;;10.30;;
40537;SDS011;27925;41.874;12.526;2023-10-08T08:16:07;16.27;;;10.40;;
40537;SDS011;27925;41.874;12.526;2023-10-08T08:18:37;16.20;;;10.35;;
40537;SDS011;27925;41.874;12.526;2023-10-08T08:21:03;17.60;;;9.90;;
40537;SDS011;27925;41.874;12.526;2023-10-08T08:23:39;13.88;;;10.23;;
40537;SDS011;27925;41.874;12.526;2023-10-08T08:26:05;15.85;;;9.52;;
40537;SDS011;27925;41.874;12.526;2023-10-08T08:28:31;13.55;;;9.57;;
40537;SDS011;27925;41.874;12.526;2023-10-08T08:31:01;15.15;;;9.77;;
40537;SDS011;27925;41.874;12.526;2023-10-08T08:33:29;13.80;;;9.40;;
40537;SDS011;27925;41.874;12.526;2023-10-08T08:36:17;11.82;;;9.43;;
40537;SDS011;27925;41.874;12.526;2023-10-08T08:38:47;12.98;;;9.93;;
40537;SDS011;27925;41.874;12.526;2023-10-08T08:41:13;16.45;;;9.15;;
40537;SDS011;27925;41.874;12.526;2023-10-08T08:43:43;16.48;;;10.13;;
40537;SDS011;27925;41.874;12.526;2023-10-08T08:46:12;18.33;;;10.70;;
40537;SDS011;27925;41.874;12.526;2023-10-08T08:48:41;17.02;;;9.57;;
40537;SDS011;27925;41.874;12.526;2023-10-08T08:51:09;13.15;;;9.30;;
40537;SDS011;27925;41.874;12.526;2023-10-08T08:53:36;17.10;;;10.05;;
40537;SDS011;27925;41.874;12.526;2023-10-08T08:56:02;14.48;;;9.90;;
40537;SDS011;27925;41.874;12.526;2023-10-08T08:58:32;13.70;;;8.75;;
40537;SDS011;27925;41.874;12.526;2023-10-08T09:00:59;14.30;;;9.23;;
40537;SDS011;27925;41.874;12.526;2023-10-08T09:03:25;16.88;;;10.05;;
40537;SDS011;27925;41.874;12.526;2023-10-08T09:05:56;13.60;;;9.18;;
40537;SDS011;27925;41.874;12.526;2023-10-08T09:08:22;16.02;;;9.43;;
40537;SDS011;27925;41.874;12.526;2023-10-08T09:10:54;13.07;;;9.60;;
40537;SDS011;27925;41.874;12.526;2023-10-08T09:13:26;13.15;;;8.50;;
40537;SDS011;27925;41.874;12.526;2023-10-08T09:16:14;15.88;;;9.10;;
40537;SDS011;27925;41.874;12.526;2023-10-08T09:18:43;14.32;;;9.15;;
40537;SDS011;27925;41.874;12.526;2023-10-08T09:21:13;14.90;;;9.35;;
40537;SDS011;27925;41.874;12.526;2023-10-08T09:23:40;16.25;;;9.63;;
40537;SDS011;27925;41.874;12.526;2023-10-08T09:26:08;14.00;;;9.00;;
40537;SDS011;27925;41.874;12.526;2023-10-08T09:28:36;17.30;;;9.00;;
40537;SDS011;27925;41.874;12.526;2023-10-08T09:31:04;17.83;;;9.18;;
40537;SDS011;27925;41.874;12.526;2023-10-08T09:33:31;13.05;;;9.57;;
40537;SDS011;27925;41.874;12.526;2023-10-08T09:35:58;12.95;;;9.38;;
40537;SDS011;27925;41.874;12.526;2023-10-08T09:38:29;13.07;;;8.73;;
40537;SDS011;27925;41.874;12.526;2023-10-08T09:40:56;14.63;;;9.05;;
40537;SDS011;27925;41.874;12.526;2023-10-08T09:43:26;17.80;;;9.60;;
40537;SDS011;27925;41.874;12.526;2023-10-08T09:46:00;15.63;;;8.77;;
40537;SDS011;27925;41.874;12.526;2023-10-08T09:48:49;16.52;;;9.07;;
40537;SDS011;27925;41.874;12.526;2023-10-08T09:51:19;13.52;;;8.57;;
40537;SDS011;27925;41.874;12.526;2023-10-08T09:54:05;17.88;;;9.15;;
40537;SDS011;27925;41.874;12.526;2023-10-08T09:56:39;11.68;;;8.15;;
40537;SDS011;27925;41.874;12.526;2023-10-08T09:59:05;11.68;;;7.88;;
40537;SDS011;27925;41.874;12.526;2023-10-08T10:01:34;11.90;;;8.93;;
40537;SDS011;27925;41.874;12.526;2023-10-08T10:04:05;12.18;;;8.27;;
40537;SDS011;27925;41.874;12.526;2023-10-08T10:06:34;12.88;;;9.00;;
40537;SDS011;27925;41.874;12.526;2023-10-08T10:09:01;12.43;;;8.02;;
40537;SDS011;27925;41.874;12.526;2023-10-08T10:11:31;11.02;;;7.93;;
40537;SDS011;27925;41.874;12.526;2023-10-08T10:13:58;12.88;;;8.18;;
40537;SDS011;27925;41.874;12.526;2023-10-08T10:16:27;12.38;;;7.50;;
40537;SDS011;27925;41.874;12.526;2023-10-08T10:18:56;19.30;;;7.95;;
40537;SDS011;27925;41.874;12.526;2023-10-08T10:21:26;11.90;;;7.30;;
40537;SDS011;27925;41.874;12.526;2023-10-08T10:23:54;14.13;;;7.35;;
40537;SDS011;27925;41.874;12.526;2023-10-08T10:26:35;10.10;;;7.50;;
40537;SDS011;27925;41.874;12.526;2023-10-08T10:31:39;12.45;;;8.05;;
40537;SDS011;27925;41.874;12.526;2023-10-08T10:34:15;11.40;;;7.22;;
40537;SDS011;27925;41.874;12.526;2023-10-08T10:36:44;10.60;;;7.40;;
40537;SDS011;27925;41.874;12.526;2023-10-08T10:39:14;10.98;;;7.45;;
40537;SDS011;27925;41.874;12.526;2023-10-08T10:41:56;12.40;;;6.95;;
40537;SDS011;27925;41.874;12.526;2023-10-08T10:44:26;9.95;;;7.07;;
40537;SDS011;27925;41.874;12.526;2023-10-08T10:46:54;12.10;;;6.43;;
40537;SDS011;27925;41.874;12.526;2023-10-08T10:49:53;10.00;;;5.78;;
40537;SDS011;27925;41.874;12.526;2023-10-08T10:52:39;11.10;;;6.70;;
40537;SDS011;27925;41.874;12.526;2023-10-08T10:55:17;10.48;;;6.93;;
40537;SDS011;27925;41.874;12.526;2023-10-08T10:57:46;9.50;;;6.25;;
40537;SDS011;27925;41.874;12.526;2023-10-08T11:00:43;9.70;;;6.47;;
40537;SDS011;27925;41.874;12.526;2023-10-08T11:03:10;11.32;;;6.32;;
40537;SDS011;27925;41.874;12.526;2023-10-08T11:05:41;9.02;;;6.55;;
40537;SDS011;27925;41.874;12.526;2023-10-08T11:08:13;9.75;;;6.25;;
40537;SDS011;27925;41.874;12.526;2023-10-08T11:10:42;9.10;;;6.03;;
40537;SDS011;27925;41.874;12.526;2023-10-08T11:13:20;12.02;;;6.50;;
40537;SDS011;27925;41.874;12.526;2023-10-08T11:15:53;9.38;;;6.60;;
40537;SDS011;27925;41.874;12.526;2023-10-08T11:18:23;9.57;;;6.25;;
40537;SDS011;27925;41.874;12.526;2023-10-08T11:20:52;11.93;;;7.75;;
40537;SDS011;27925;41.874;12.526;2023-10-08T11:23:48;10.43;;;7.47;;
40537;SDS011;27925;41.874;12.526;2023-10-08T11:26:18;11.20;;;6.80;;
40537;SDS011;27925;41.874;12.526;2023-10-08T11:28:46;15.05;;;9.05;;
40537;SDS011;27925;41.874;12.526;2023-10-08T11:31:17;12.95;;;7.57;;
40537;SDS011;27925;41.874;12.526;2023-10-08T11:36:21;11.68;;;6.20;;
40537;SDS011;27925;41.874;12.526;2023-10-08T11:38:54;9.32;;;6.32;;
40537;SDS011;27925;41.874;12.526;2023-10-08T11:41:27;10.05;;;7.10;;
40537;SDS011;27925;41.874;12.526;2023-10-08T11:44:00;11.70;;;6.93;;
40537;SDS011;27925;41.874;12.526;2023-10-08T11:46:29;10.02;;;6.43;;
